sensor_id;sensor_type;location;lat;lon;timestamp;temperature;humidity
336;DHT22;156;48.738;9.228;2023-11-21T00:02:02;7.50;99.90
336;DHT22;156;48.738;9.228;2023-11-21T00:04:30;7.50;99.90
336;DHT22;156;48.738;9.228;2023-11-21T00:06:58;7.50;99.90
336;DHT22;156;48.738;9.228;2023-11-21T00:09:25;7.60;99.90
336;DHT22;156;48.738;9.228;2023-11-21T00:11:52;7.60;99.90
336;DHT22;156;48.738;9.228;2023-11-21T00:14:19;7.60;99.90
336;DHT22;156;48.738;9.228;2023-11-21T00:16:46;7.60;99.90
336;DHT22;156;48.738;9.228;2023-11-21T00:19:15;7.70;99.90
336;DHT22;156;48.738;9.228;2023-11-21T00:21:42;7.70;99.90
336;DHT22;156;48.738;9.228;2023-11-21T00:24:12;7.60;99.90
336;DHT22;156;48.738;9.228;2023-11-21T00:26:39;7.60;99.90
336;DHT22;156;48.738;9.228;2023-11-21T00:29:06;7.60;99.90
336;DHT22;156;48.738;9.228;2023-11-21T00:31:34;7.50;99.90
336;DHT22;156;48.738;9.228;2023-11-21T00:34:02;7.50;99.90
336;DHT22;156;48.738;9.228;2023-11-21T00:36:30;7.50;99.90
336;DHT22;156;48.738;9.228;2023-11-21T00:38:57;7.50;99.90
336;DHT22;156;48.738;9.228;2023-11-21T00:41:26;7.40;99.90
336;DHT22;156;48.738;9.228;2023-11-21T00:43:54;7.50;99.90
336;DHT22;156;48.738;9.228;2023-11-21T00:46:21;7.60;99.90
336;DHT22;156;48.738;9.228;2023-11-21T00:48:49;7.60;99.90
336;DHT22;156;48.738;9.228;2023-11-21T00:51:16;7.60;99.90
336;DHT22;156;48.738;9.228;2023-11-21T00:53:43;7.60;99.90
336;DHT22;156;48.738;9.228;2023-11-21T00:56:10;7.50;99.90
336;DHT22;156;48.738;9.228;2023-11-21T00:58:38;7.50;99.90
336;DHT22;156;48.738;9.228;2023-11-21T01:01:08;7.40;99.90
336;DHT22;156;48.738;9.228;2023-11-21T01:03:35;7.50;99.90
336;DHT22;156;48.738;9.228;2023-11-21T01:06:02;7.40;99.90
336;DHT22;156;48.738;9.228;2023-11-21T01:08:30;7.50;99.90
336;DHT22;156;48.738;9.228;2023-11-21T01:10:57;7.50;99.90
336;DHT22;156;48.738;9.228;2023-11-21T01:13:24;7.40;99.90
336;DHT22;156;48.738;9.228;2023-11-21T01:15:57;7.50;99.90
336;DHT22;156;48.738;9.228;2023-11-21T01:18:24;7.40;99.90
336;DHT22;156;48.738;9.228;2023-11-21T01:20:51;7.30;99.90
336;DHT22;156;48.738;9.228;2023-11-21T01:23:19;7.30;99.90
336;DHT22;156;48.738;9.228;2023-11-21T01:25:46;7.30;99.90
336;DHT22;156;48.738;9.228;2023-11-21T01:28:13;7.30;99.90
336;DHT22;156;48.738;9.228;2023-11-21T01:30:40;7.30;99.90
336;DHT22;156;48.738;9.228;2023-11-21T01:33:08;7.20;99.90
336;DHT22;156;48.738;9.228;2023-11-21T01:35:35;7.40;99.90
336;DHT22;156;48.738;9.228;2023-11-21T01:38:02;7.40;99.90
336;DHT22;156;48.738;9.228;2023-11-21T01:40:29;7.40;99.90
336;DHT22;156;48.738;9.228;2023-11-21T01:42:56;7.40;99.90
336;DHT22;156;48.738;9.228;2023-11-21T01:45:24;7.40;99.90
336;DHT22;156;48.738;9.228;2023-11-21T01:47:51;7.30;99.90
336;DHT22;156;48.738;9.228;2023-11-21T01:50:20;7.40;99.90
336;DHT22;156;48.738;9.228;2023-11-21T01:52:48;7.40;99.90
336;DHT22;156;48.738;9.228;2023-11-21T01:55:17;7.50;99.90
336;DHT22;156;48.738;9.228;2023-11-21T01:57:45;7.50;99.90
336;DHT22;156;48.738;9.228;2023-11-21T02:00:13;7.50;99.90
336;DHT22;156;48.738;9.228;2023-11-21T02:02:42;7.50;99.90
336;DHT22;156;48.738;9.228;2023-11-21T02:05:10;7.60;99.90
336;DHT22;156;48.738;9.228;2023-11-21T02:07:39;7.60;99.90
336;DHT22;156;48.738;9.228;2023-11-21T02:10:07;7.50;99.90
336;DHT22;156;48.738;9.228;2023-11-21T02:12:34;7.50;99.90
336;DHT22;156;48.738;9.228;2023-11-21T02:15:02;7.60;99.90
336;DHT22;156;48.738;9.228;2023-11-21T02:17:31;7.60;99.90
336;DHT22;156;48.738;9.228;2023-11-21T02:19:58;7.60;99.90
336;DHT22;156;48.738;9.228;2023-11-21T02:22:27;7.60;99.90
336;DHT22;156;48.738;9.228;2023-11-21T02:24:59;7.50;99.90
336;DHT22;156;48.738;9.228;2023-11-21T02:27:26;7.60;99.90
336;DHT22;156;48.738;9.228;2023-11-21T02:29:53;7.60;99.90
336;DHT22;156;48.738;9.228;2023-11-21T02:32:21;7.60;99.90
336;DHT22;156;48.738;9.228;2023-11-21T02:34:48;7.60;99.90
336;DHT22;156;48.738;9.228;2023-11-21T02:37:15;7.70;99.90
336;DHT22;156;48.738;9.228;2023-11-21T02:39:42;7.70;99.90
336;DHT22;156;48.738;9.228;2023-11-21T02:42:11;7.70;99.90
336;DHT22;156;48.738;9.228;2023-11-21T02:44:37;7.70;99.90
336;DHT22;156;48.738;9.228;2023-11-21T02:47:04;7.70;99.90
336;DHT22;156;48.738;9.228;2023-11-21T02:49:31;7.60;99.90
336;DHT22;156;48.738;9.228;2023-11-21T02:52:00;7.60;99.90
336;DHT22;156;48.738;9.228;2023-11-21T02:54:27;7.60;99.90
336;DHT22;156;48.738;9.228;2023-11-21T02:56:54;7.50;99.90
336;DHT22;156;48.738;9.228;2023-11-21T02:59:22;7.60;99.90
336;DHT22;156;48.738;9.228;2023-11-21T03:01:50;7.50;99.90
336;DHT22;156;48.738;9.228;2023-11-21T03:04:16;7.40;99.90
336;DHT22;156;48.738;9.228;2023-11-21T03:06:45;7.40;99.90
336;DHT22;156;48.738;9.228;2023-11-21T03:09:12;7.40;99.90
336;DHT22;156;48.738;9.228;2023-11-21T03:11:39;7.50;99.90
336;DHT22;156;48.738;9.228;2023-11-21T03:14:06;7.50;99.90
336;DHT22;156;48.738;9.228;2023-11-21T03:16:34;7.40;99.90
336;DHT22;156;48.738;9.228;2023-11-21T03:19:04;7.40;99.90
336;DHT22;156;48.738;9.228;2023-11-21T03:21:31;7.40;99.90
336;DHT22;156;48.738;9.228;2023-11-21T03:23:58;7.40;99.90
336;DHT22;156;48.738;9.228;2023-11-21T03:26:26;7.40;99.90
336;DHT22;156;48.738;9.228;2023-11-21T03:28:53;7.50;99.90
336;DHT22;156;48.738;9.228;2023-11-21T03:31:20;7.50;99.90
336;DHT22;156;48.738;9.228;2023-11-21T03:33:48;7.40;99.90
336;DHT22;156;48.738;9.228;2023-11-21T03:36:15;7.40;99.90
336;DHT22;156;48.738;9.228;2023-11-21T03:38:43;7.40;99.90
336;DHT22;156;48.738;9.228;2023-11-21T03:41:10;7.40;99.90
336;DHT22;156;48.738;9.228;2023-11-21T03:43:37;7.40;99.90
336;DHT22;156;48.738;9.228;2023-11-21T03:46:05;7.40;99.90
336;DHT22;156;48.738;9.228;2023-11-21T03:48:32;7.40;99.90
336;DHT22;156;48.738;9.228;2023-11-21T03:51:01;7.40;99.90
336;DHT22;156;48.738;9.228;2023-11-21T03:53:30;7.40;99.90
336;DHT22;156;48.738;9.228;2023-11-21T03:55:57;7.40;99.90
336;DHT22;156;48.738;9.228;2023-11-21T03:58:24;7.40;99.90
336;DHT22;156;48.738;9.228;2023-11-21T04:00:51;7.70;99.90
336;DHT22;156;48.738;9.228;2023-11-21T04:03:18;7.40;99.90
336;DHT22;156;48.738;9.228;2023-11-21T04:05:45;7.40;99.90
336;DHT22;156;48.738;9.228;2023-11-21T04:08:14;7.40;99.90
336;DHT22;156;48.738;9.228;2023-11-21T04:10:41;7.40;99.90
336;DHT22;156;48.738;9.228;2023-11-21T04:13:08;7.50;99.90
336;DHT22;156;48.738;9.228;2023-11-21T04:15:36;7.50;99.90
336;DHT22;156;48.738;9.228;2023-11-21T04:18:03;7.50;99.90
336;DHT22;156;48.738;9.228;2023-11-21T04:20:30;7.50;99.90
336;DHT22;156;48.738;9.228;2023-11-21T04:22:57;7.50;99.90
336;DHT22;156;48.738;9.228;2023-11-21T04:25:25;7.50;99.90
336;DHT22;156;48.738;9.228;2023-11-21T04:27:52;7.60;99.90
336;DHT22;156;48.738;9.228;2023-11-21T04:30:19;7.60;99.90
336;DHT22;156;48.738;9.228;2023-11-21T04:32:46;7.50;99.90
336;DHT22;156;48.738;9.228;2023-11-21T04:35:13;7.60;99.90
336;DHT22;156;48.738;9.228;2023-11-21T04:37:40;7.60;99.90
336;DHT22;156;48.738;9.228;2023-11-21T04:40:08;7.60;99.90
336;DHT22;156;48.738;9.228;2023-11-21T04:42:37;7.60;99.90
336;DHT22;156;48.738;9.228;2023-11-21T04:45:07;7.70;99.90
336;DHT22;156;48.738;9.228;2023-11-21T04:47:36;7.60;99.90
336;DHT22;156;48.738;9.228;2023-11-21T04:50:04;7.60;99.90
336;DHT22;156;48.738;9.228;2023-11-21T04:52:32;7.50;99.90
336;DHT22;156;48.738;9.228;2023-11-21T04:55:01;7.50;99.90
336;DHT22;156;48.738;9.228;2023-11-21T04:57:28;7.30;99.90
336;DHT22;156;48.738;9.228;2023-11-21T04:59:57;7.30;99.90
336;DHT22;156;48.738;9.228;2023-11-21T05:02:24;7.30;99.90
336;DHT22;156;48.738;9.228;2023-11-21T05:04:52;7.30;99.90
336;DHT22;156;48.738;9.228;2023-11-21T05:07:22;7.40;99.90
336;DHT22;156;48.738;9.228;2023-11-21T05:09:48;7.40;99.90
336;DHT22;156;48.738;9.228;2023-11-21T05:12:15;7.40;99.90
336;DHT22;156;48.738;9.228;2023-11-21T05:14:42;7.30;99.90
336;DHT22;156;48.738;9.228;2023-11-21T05:17:10;7.30;99.90
336;DHT22;156;48.738;9.228;2023-11-21T05:19:37;7.30;99.90
336;DHT22;156;48.738;9.228;2023-11-21T05:22:05;7.30;99.90
336;DHT22;156;48.738;9.228;2023-11-21T05:24:34;7.20;99.90
336;DHT22;156;48.738;9.228;2023-11-21T05:27:01;7.20;99.90
336;DHT22;156;48.738;9.228;2023-11-21T05:29:27;7.20;99.90
336;DHT22;156;48.738;9.228;2023-11-21T05:31:54;7.20;99.90
336;DHT22;156;48.738;9.228;2023-11-21T05:34:23;7.20;99.90
336;DHT22;156;48.738;9.228;2023-11-21T05:36:50;7.20;99.90
336;DHT22;156;48.738;9.228;2023-11-21T05:39:17;7.20;99.90
336;DHT22;156;48.738;9.228;2023-11-21T05:41:45;7.20;99.90
336;DHT22;156;48.738;9.228;2023-11-21T05:44:12;7.20;99.90
336;DHT22;156;48.738;9.228;2023-11-21T05:46:40;7.20;99.90
336;DHT22;156;48.738;9.228;2023-11-21T05:49:08;7.20;99.90
336;DHT22;156;48.738;9.228;2023-11-21T05:51:37;7.10;99.90
336;DHT22;156;48.738;9.228;2023-11-21T05:54:04;7.20;99.90
336;DHT22;156;48.738;9.228;2023-11-21T05:56:30;7.20;99.90
336;DHT22;156;48.738;9.228;2023-11-21T05:58:57;7.20;99.90
336;DHT22;156;48.738;9.228;2023-11-21T06:01:25;7.20;99.90
336;DHT22;156;48.738;9.228;2023-11-21T06:03:53;7.20;99.90
336;DHT22;156;48.738;9.228;2023-11-21T06:06:20;7.20;99.90
336;DHT22;156;48.738;9.228;2023-11-21T06:08:51;7.10;99.90
336;DHT22;156;48.738;9.228;2023-11-21T06:11:18;7.20;99.90
336;DHT22;156;48.738;9.228;2023-11-21T06:13:45;7.30;99.90
336;DHT22;156;48.738;9.228;2023-11-21T06:16:13;7.30;99.90
336;DHT22;156;48.738;9.228;2023-11-21T06:18:42;7.30;99.90
336;DHT22;156;48.738;9.228;2023-11-21T06:21:10;7.30;99.90
336;DHT22;156;48.738;9.228;2023-11-21T06:23:36;7.30;99.90
336;DHT22;156;48.738;9.228;2023-11-21T06:26:05;7.30;99.90
336;DHT22;156;48.738;9.228;2023-11-21T06:28:32;7.30;99.90
336;DHT22;156;48.738;9.228;2023-11-21T06:30:59;7.30;99.90
336;DHT22;156;48.738;9.228;2023-11-21T06:33:30;7.30;99.90
336;DHT22;156;48.738;9.228;2023-11-21T06:35:57;7.50;99.90
336;DHT22;156;48.738;9.228;2023-11-21T06:38:24;7.50;99.90
336;DHT22;156;48.738;9.228;2023-11-21T06:40:53;7.50;99.90
336;DHT22;156;48.738;9.228;2023-11-21T06:43:22;7.40;99.90
336;DHT22;156;48.738;9.228;2023-11-21T06:45:49;7.40;99.90
336;DHT22;156;48.738;9.228;2023-11-21T06:48:16;7.40;99.90
336;DHT22;156;48.738;9.228;2023-11-21T06:50:43;7.40;99.90
336;DHT22;156;48.738;9.228;2023-11-21T06:53:10;7.40;99.90
336;DHT22;156;48.738;9.228;2023-11-21T06:55:37;7.40;99.90
336;DHT22;156;48.738;9.228;2023-11-21T06:58:04;7.40;99.90
336;DHT22;156;48.738;9.228;2023-11-21T07:00:32;7.50;99.90
336;DHT22;156;48.738;9.228;2023-11-21T07:02:59;7.50;99.90
336;DHT22;156;48.738;9.228;2023-11-21T07:05:26;7.50;99.90
336;DHT22;156;48.738;9.228;2023-11-21T07:07:53;7.50;99.90
336;DHT22;156;48.738;9.228;2023-11-21T07:10:20;7.50;99.90
336;DHT22;156;48.738;9.228;2023-11-21T07:12:47;7.50;99.90
336;DHT22;156;48.738;9.228;2023-11-21T07:15:14;7.40;99.90
336;DHT22;156;48.738;9.228;2023-11-21T07:17:43;7.40;99.90
336;DHT22;156;48.738;9.228;2023-11-21T07:20:11;7.40;99.90
336;DHT22;156;48.738;9.228;2023-11-21T07:22:38;7.40;99.90
336;DHT22;156;48.738;9.228;2023-11-21T07:25:06;7.40;99.90
336;DHT22;156;48.738;9.228;2023-11-21T07:27:35;7.40;99.90
336;DHT22;156;48.738;9.228;2023-11-21T07:30:03;7.40;99.90
336;DHT22;156;48.738;9.228;2023-11-21T07:32:31;7.50;99.90
336;DHT22;156;48.738;9.228;2023-11-21T07:35:00;7.40;99.90
336;DHT22;156;48.738;9.228;2023-11-21T07:37:27;7.50;99.90
336;DHT22;156;48.738;9.228;2023-11-21T07:39:54;7.50;99.90
336;DHT22;156;48.738;9.228;2023-11-21T07:42:22;7.50;99.90
336;DHT22;156;48.738;9.228;2023-11-21T07:44:49;7.50;99.90
336;DHT22;156;48.738;9.228;2023-11-21T07:47:17;7.60;99.90
336;DHT22;156;48.738;9.228;2023-11-21T07:49:44;7.60;99.90
336;DHT22;156;48.738;9.228;2023-11-21T07:52:13;7.70;99.90
336;DHT22;156;48.738;9.228;2023-11-21T07:54:41;7.70;99.90
336;DHT22;156;48.738;9.228;2023-11-21T07:57:08;7.80;99.90
336;DHT22;156;48.738;9.228;2023-11-21T07:59:38;7.80;99.90
336;DHT22;156;48.738;9.228;2023-11-21T08:02:06;7.80;99.90
336;DHT22;156;48.738;9.228;2023-11-21T08:04:33;7.90;99.90
336;DHT22;156;48.738;9.228;2023-11-21T08:07:01;7.90;99.90
336;DHT22;156;48.738;9.228;2023-11-21T08:09:31;7.80;99.90
336;DHT22;156;48.738;9.228;2023-11-21T08:12:00;7.80;99.90
336;DHT22;156;48.738;9.228;2023-11-21T08:14:28;7.70;99.90
336;DHT22;156;48.738;9.228;2023-11-21T08:16:55;7.80;99.90
336;DHT22;156;48.738;9.228;2023-11-21T08:19:23;7.70;99.90
336;DHT22;156;48.738;9.228;2023-11-21T08:21:51;7.60;99.90
336;DHT22;156;48.738;9.228;2023-11-21T08:24:20;7.50;99.90
336;DHT22;156;48.738;9.228;2023-11-21T08:26:48;7.50;99.90
336;DHT22;156;48.738;9.228;2023-11-21T08:29:16;7.50;99.90
336;DHT22;156;48.738;9.228;2023-11-21T08:31:43;7.50;99.90
336;DHT22;156;48.738;9.228;2023-11-21T08:34:12;7.60;99.90
336;DHT22;156;48.738;9.228;2023-11-21T08:36:41;7.50;99.90
336;DHT22;156;48.738;9.228;2023-11-21T08:39:08;7.50;99.90
336;DHT22;156;48.738;9.228;2023-11-21T08:41:36;7.60;99.90
336;DHT22;156;48.738;9.228;2023-11-21T08:44:05;7.60;99.90
336;DHT22;156;48.738;9.228;2023-11-21T08:46:33;7.60;99.90
336;DHT22;156;48.738;9.228;2023-11-21T08:49:02;7.60;99.90
336;DHT22;156;48.738;9.228;2023-11-21T08:51:29;7.70;99.90
336;DHT22;156;48.738;9.228;2023-11-21T08:53:57;7.70;99.90
336;DHT22;156;48.738;9.228;2023-11-21T08:56:26;7.70;99.90
336;DHT22;156;48.738;9.228;2023-11-21T08:58:53;7.70;99.90
336;DHT22;156;48.738;9.228;2023-11-21T09:01:21;7.80;99.90
336;DHT22;156;48.738;9.228;2023-11-21T09:03:49;7.90;99.90
336;DHT22;156;48.738;9.228;2023-11-21T09:06:16;8.00;99.90
336;DHT22;156;48.738;9.228;2023-11-21T09:08:43;8.10;99.90
336;DHT22;156;48.738;9.228;2023-11-21T09:11:10;8.20;99.90
336;DHT22;156;48.738;9.228;2023-11-21T09:13:37;8.30;99.90
336;DHT22;156;48.738;9.228;2023-11-21T09:16:04;8.40;99.90
336;DHT22;156;48.738;9.228;2023-11-21T09:18:32;8.50;99.90
336;DHT22;156;48.738;9.228;2023-11-21T09:20:59;8.60;99.90
336;DHT22;156;48.738;9.228;2023-11-21T09:23:26;8.70;99.90
336;DHT22;156;48.738;9.228;2023-11-21T09:25:53;8.80;85.70
336;DHT22;156;48.738;9.228;2023-11-21T09:28:22;8.90;46.70
336;DHT22;156;48.738;9.228;2023-11-21T09:30:49;8.80;38.00
336;DHT22;156;48.738;9.228;2023-11-21T09:33:16;8.90;41.60
336;DHT22;156;48.738;9.228;2023-11-21T09:35:44;9.10;40.70
336;DHT22;156;48.738;9.228;2023-11-21T09:38:11;9.30;22.60
336;DHT22;156;48.738;9.228;2023-11-21T09:40:38;9.20;1.00
336;DHT22;156;48.738;9.228;2023-11-21T09:43:08;9.10;1.00
336;DHT22;156;48.738;9.228;2023-11-21T09:45:45;9.20;1.00
336;DHT22;156;48.738;9.228;2023-11-21T09:48:13;9.40;1.00
336;DHT22;156;48.738;9.228;2023-11-21T09:50:42;9.50;1.00
336;DHT22;156;48.738;9.228;2023-11-21T09:53:13;9.60;1.00
336;DHT22;156;48.738;9.228;2023-11-21T09:55:44;9.40;1.00
336;DHT22;156;48.738;9.228;2023-11-21T09:58:12;9.30;1.00
336;DHT22;156;48.738;9.228;2023-11-21T10:00:41;9.30;1.00
336;DHT22;156;48.738;9.228;2023-11-21T10:03:08;9.20;1.00
336;DHT22;156;48.738;9.228;2023-11-21T10:05:35;9.10;1.00
336;DHT22;156;48.738;9.228;2023-11-21T10:08:04;9.00;1.00
336;DHT22;156;48.738;9.228;2023-11-21T10:10:35;9.00;1.00
336;DHT22;156;48.738;9.228;2023-11-21T10:13:03;9.10;1.00
336;DHT22;156;48.738;9.228;2023-11-21T10:15:33;9.00;1.00
336;DHT22;156;48.738;9.228;2023-11-21T10:18:03;8.90;11.40
336;DHT22;156;48.738;9.228;2023-11-21T10:20:32;8.90;44.70
336;DHT22;156;48.738;9.228;2023-11-21T10:23:00;8.90;70.30
336;DHT22;156;48.738;9.228;2023-11-21T10:25:29;8.90;75.70
336;DHT22;156;48.738;9.228;2023-11-21T10:27:59;8.90;73.30
336;DHT22;156;48.738;9.228;2023-11-21T10:30:32;8.90;91.20
336;DHT22;156;48.738;9.228;2023-11-21T10:33:03;8.90;96.00
336;DHT22;156;48.738;9.228;2023-11-21T10:35:42;9.10;99.90
336;DHT22;156;48.738;9.228;2023-11-21T10:38:12;9.20;99.90
336;DHT22;156;48.738;9.228;2023-11-21T10:40:40;9.30;84.20
336;DHT22;156;48.738;9.228;2023-11-21T10:43:09;9.20;33.70
336;DHT22;156;48.738;9.228;2023-11-21T10:45:37;9.20;48.70
336;DHT22;156;48.738;9.228;2023-11-21T10:48:05;9.10;57.90
336;DHT22;156;48.738;9.228;2023-11-21T10:50:34;9.00;45.70
336;DHT22;156;48.738;9.228;2023-11-21T10:53:02;8.80;81.30
336;DHT22;156;48.738;9.228;2023-11-21T10:55:30;8.60;99.90
336;DHT22;156;48.738;9.228;2023-11-21T10:57:59;8.50;99.90
336;DHT22;156;48.738;9.228;2023-11-21T11:00:29;8.40;99.90
336;DHT22;156;48.738;9.228;2023-11-21T11:02:56;8.30;99.90
336;DHT22;156;48.738;9.228;2023-11-21T11:05:26;8.30;99.90
336;DHT22;156;48.738;9.228;2023-11-21T11:07:58;8.30;99.90
336;DHT22;156;48.738;9.228;2023-11-21T11:10:28;8.20;99.90
336;DHT22;156;48.738;9.228;2023-11-21T11:12:56;8.20;99.90
336;DHT22;156;48.738;9.228;2023-11-21T11:15:25;8.20;99.90
336;DHT22;156;48.738;9.228;2023-11-21T11:17:54;8.10;99.90
336;DHT22;156;48.738;9.228;2023-11-21T11:20:24;8.10;99.90
336;DHT22;156;48.738;9.228;2023-11-21T11:23:04;8.20;99.90
336;DHT22;156;48.738;9.228;2023-11-21T11:25:53;8.20;99.90
336;DHT22;156;48.738;9.228;2023-11-21T11:28:29;8.20;99.90
336;DHT22;156;48.738;9.228;2023-11-21T11:31:05;8.20;99.90
336;DHT22;156;48.738;9.228;2023-11-21T11:33:42;8.30;99.90
336;DHT22;156;48.738;9.228;2023-11-21T11:36:16;8.40;99.90
336;DHT22;156;48.738;9.228;2023-11-21T11:38:46;8.50;99.90
336;DHT22;156;48.738;9.228;2023-11-21T11:41:24;8.60;99.90
336;DHT22;156;48.738;9.228;2023-11-21T11:43:52;8.70;99.90
336;DHT22;156;48.738;9.228;2023-11-21T11:46:19;8.80;99.90
336;DHT22;156;48.738;9.228;2023-11-21T11:48:49;8.90;99.90
336;DHT22;156;48.738;9.228;2023-11-21T11:51:28;8.80;99.90
336;DHT22;156;48.738;9.228;2023-11-21T11:53:57;8.90;99.90
336;DHT22;156;48.738;9.228;2023-11-21T11:56:28;8.90;99.90
336;DHT22;156;48.738;9.228;2023-11-21T11:58:58;8.90;99.90
336;DHT22;156;48.738;9.228;2023-11-21T12:01:26;8.80;99.90
336;DHT22;156;48.738;9.228;2023-11-21T12:04:24;8.80;99.90
336;DHT22;156;48.738;9.228;2023-11-21T12:06:59;8.80;99.90
336;DHT22;156;48.738;9.228;2023-11-21T12:09:28;8.80;99.90
336;DHT22;156;48.738;9.228;2023-11-21T12:11:57;8.80;99.90
336;DHT22;156;48.738;9.228;2023-11-21T12:14:24;8.70;99.90
336;DHT22;156;48.738;9.228;2023-11-21T12:16:51;8.70;99.90
336;DHT22;156;48.738;9.228;2023-11-21T12:19:19;8.70;99.90
336;DHT22;156;48.738;9.228;2023-11-21T12:21:48;8.70;99.90
336;DHT22;156;48.738;9.228;2023-11-21T12:24:16;8.70;99.90
336;DHT22;156;48.738;9.228;2023-11-21T12:26:45;8.70;99.90
336;DHT22;156;48.738;9.228;2023-11-21T12:29:12;8.80;99.90
336;DHT22;156;48.738;9.228;2023-11-21T12:31:39;8.70;99.90
336;DHT22;156;48.738;9.228;2023-11-21T12:34:07;8.70;99.90
336;DHT22;156;48.738;9.228;2023-11-21T12:36:37;8.70;99.90
336;DHT22;156;48.738;9.228;2023-11-21T12:39:05;8.70;99.90
336;DHT22;156;48.738;9.228;2023-11-21T12:41:34;8.70;99.90
336;DHT22;156;48.738;9.228;2023-11-21T12:44:01;8.70;99.90
336;DHT22;156;48.738;9.228;2023-11-21T12:46:28;8.70;99.90
336;DHT22;156;48.738;9.228;2023-11-21T12:48:58;8.70;99.90
336;DHT22;156;48.738;9.228;2023-11-21T12:51:24;8.70;99.90
336;DHT22;156;48.738;9.228;2023-11-21T12:53:51;8.70;99.90
336;DHT22;156;48.738;9.228;2023-11-21T12:56:21;8.70;99.90
336;DHT22;156;48.738;9.228;2023-11-21T12:58:50;8.70;99.90
336;DHT22;156;48.738;9.228;2023-11-21T13:01:20;8.70;99.90
336;DHT22;156;48.738;9.228;2023-11-21T13:03:49;8.70;99.90
336;DHT22;156;48.738;9.228;2023-11-21T13:06:17;8.70;99.90
336;DHT22;156;48.738;9.228;2023-11-21T13:08:45;8.70;99.90
336;DHT22;156;48.738;9.228;2023-11-21T13:11:12;8.60;99.90
336;DHT22;156;48.738;9.228;2023-11-21T13:13:43;8.60;99.90
336;DHT22;156;48.738;9.228;2023-11-21T13:16:10;8.50;99.90
336;DHT22;156;48.738;9.228;2023-11-21T13:18:38;8.50;99.90
336;DHT22;156;48.738;9.228;2023-11-21T13:21:08;8.60;99.90
336;DHT22;156;48.738;9.228;2023-11-21T13:23:39;8.80;99.90
336;DHT22;156;48.738;9.228;2023-11-21T13:26:07;8.90;99.90
336;DHT22;156;48.738;9.228;2023-11-21T13:28:35;9.00;99.90
336;DHT22;156;48.738;9.228;2023-11-21T13:31:05;9.00;99.90
336;DHT22;156;48.738;9.228;2023-11-21T13:33:46;9.00;99.90
336;DHT22;156;48.738;9.228;2023-11-21T13:36:17;9.00;99.90
336;DHT22;156;48.738;9.228;2023-11-21T13:38:48;9.00;99.90
336;DHT22;156;48.738;9.228;2023-11-21T13:41:15;9.00;99.90
336;DHT22;156;48.738;9.228;2023-11-21T13:43:44;8.90;99.90
336;DHT22;156;48.738;9.228;2023-11-21T13:46:17;8.90;99.90
336;DHT22;156;48.738;9.228;2023-11-21T13:48:47;8.80;99.90
336;DHT22;156;48.738;9.228;2023-11-21T13:51:16;8.50;99.90
336;DHT22;156;48.738;9.228;2023-11-21T13:53:44;8.40;99.90
336;DHT22;156;48.738;9.228;2023-11-21T13:56:13;8.20;99.90
336;DHT22;156;48.738;9.228;2023-11-21T13:58:45;8.10;99.90
336;DHT22;156;48.738;9.228;2023-11-21T14:01:17;8.00;99.90
336;DHT22;156;48.738;9.228;2023-11-21T14:04:07;7.90;99.90
336;DHT22;156;48.738;9.228;2023-11-21T14:06:45;7.90;99.90
336;DHT22;156;48.738;9.228;2023-11-21T14:09:13;8.00;99.90
336;DHT22;156;48.738;9.228;2023-11-21T14:11:50;8.00;99.90
336;DHT22;156;48.738;9.228;2023-11-21T14:14:19;7.90;99.90
336;DHT22;156;48.738;9.228;2023-11-21T14:16:47;8.00;99.90
336;DHT22;156;48.738;9.228;2023-11-21T14:19:15;8.00;99.90
336;DHT22;156;48.738;9.228;2023-11-21T14:21:42;7.90;99.90
336;DHT22;156;48.738;9.228;2023-11-21T14:24:10;7.90;99.90
336;DHT22;156;48.738;9.228;2023-11-21T14:26:39;8.00;99.90
336;DHT22;156;48.738;9.228;2023-11-21T14:29:06;8.00;99.90
336;DHT22;156;48.738;9.228;2023-11-21T14:31:34;7.90;99.90
336;DHT22;156;48.738;9.228;2023-11-21T14:34:02;7.90;99.90
336;DHT22;156;48.738;9.228;2023-11-21T14:36:32;7.90;99.90
336;DHT22;156;48.738;9.228;2023-11-21T14:38:59;7.90;99.90
336;DHT22;156;48.738;9.228;2023-11-21T14:41:26;7.90;99.90
336;DHT22;156;48.738;9.228;2023-11-21T14:43:54;7.90;99.90
336;DHT22;156;48.738;9.228;2023-11-21T14:46:22;7.90;99.90
336;DHT22;156;48.738;9.228;2023-11-21T14:48:49;7.90;99.90
336;DHT22;156;48.738;9.228;2023-11-21T14:51:26;7.80;99.90
336;DHT22;156;48.738;9.228;2023-11-21T14:53:56;7.80;99.90
336;DHT22;156;48.738;9.228;2023-11-21T14:56:26;7.80;99.90
336;DHT22;156;48.738;9.228;2023-11-21T14:58:55;7.90;99.90
336;DHT22;156;48.738;9.228;2023-11-21T15:01:23;7.80;99.90
336;DHT22;156;48.738;9.228;2023-11-21T15:04:02;7.80;99.90
336;DHT22;156;48.738;9.228;2023-11-21T15:06:33;7.80;99.90
336;DHT22;156;48.738;9.228;2023-11-21T15:08:59;7.90;99.90
336;DHT22;156;48.738;9.228;2023-11-21T15:11:54;7.80;99.90
336;DHT22;156;48.738;9.228;2023-11-21T15:14:28;7.80;99.90
336;DHT22;156;48.738;9.228;2023-11-21T15:16:57;7.80;99.90
336;DHT22;156;48.738;9.228;2023-11-21T15:19:25;7.80;99.90
336;DHT22;156;48.738;9.228;2023-11-21T15:21:55;7.80;99.90
336;DHT22;156;48.738;9.228;2023-11-21T15:24:22;7.80;99.90
336;DHT22;156;48.738;9.228;2023-11-21T15:26:49;7.80;99.90
336;DHT22;156;48.738;9.228;2023-11-21T15:29:16;7.80;99.90
336;DHT22;156;48.738;9.228;2023-11-21T15:31:43;7.80;99.90
336;DHT22;156;48.738;9.228;2023-11-21T15:34:14;7.80;99.90
336;DHT22;156;48.738;9.228;2023-11-21T15:36:41;7.80;99.90
336;DHT22;156;48.738;9.228;2023-11-21T15:39:09;7.80;99.90
336;DHT22;156;48.738;9.228;2023-11-21T15:41:37;7.80;99.90
336;DHT22;156;48.738;9.228;2023-11-21T15:44:05;7.80;99.90
336;DHT22;156;48.738;9.228;2023-11-21T15:46:35;7.80;99.90
336;DHT22;156;48.738;9.228;2023-11-21T15:49:03;7.80;99.90
336;DHT22;156;48.738;9.228;2023-11-21T15:51:38;7.90;99.90
336;DHT22;156;48.738;9.228;2023-11-21T15:54:05;7.90;99.90
336;DHT22;156;48.738;9.228;2023-11-21T15:56:34;7.80;99.90
336;DHT22;156;48.738;9.228;2023-11-21T15:59:02;7.90;99.90
336;DHT22;156;48.738;9.228;2023-11-21T16:01:30;7.90;99.90
336;DHT22;156;48.738;9.228;2023-11-21T16:03:57;7.90;99.90
336;DHT22;156;48.738;9.228;2023-11-21T16:06:26;7.80;99.90
336;DHT22;156;48.738;9.228;2023-11-21T16:08:54;7.80;99.90
336;DHT22;156;48.738;9.228;2023-11-21T16:11:24;7.80;99.90
336;DHT22;156;48.738;9.228;2023-11-21T16:13:52;7.80;99.90
336;DHT22;156;48.738;9.228;2023-11-21T16:16:22;7.80;99.90
336;DHT22;156;48.738;9.228;2023-11-21T16:18:52;7.80;99.90
336;DHT22;156;48.738;9.228;2023-11-21T16:21:19;7.80;99.90
336;DHT22;156;48.738;9.228;2023-11-21T16:23:46;7.70;99.90
336;DHT22;156;48.738;9.228;2023-11-21T16:26:13;7.80;99.90
336;DHT22;156;48.738;9.228;2023-11-21T16:28:40;7.80;99.90
336;DHT22;156;48.738;9.228;2023-11-21T16:31:09;7.80;99.90
336;DHT22;156;48.738;9.228;2023-11-21T16:33:36;7.80;99.90
336;DHT22;156;48.738;9.228;2023-11-21T16:36:04;7.70;99.90
336;DHT22;156;48.738;9.228;2023-11-21T16:38:32;7.60;99.90
336;DHT22;156;48.738;9.228;2023-11-21T16:40:59;7.70;99.90
336;DHT22;156;48.738;9.228;2023-11-21T16:43:30;7.60;99.90
336;DHT22;156;48.738;9.228;2023-11-21T16:45:57;7.60;99.90
336;DHT22;156;48.738;9.228;2023-11-21T16:48:25;7.60;99.90
336;DHT22;156;48.738;9.228;2023-11-21T16:50:53;7.60;99.90
336;DHT22;156;48.738;9.228;2023-11-21T16:53:20;7.50;99.90
336;DHT22;156;48.738;9.228;2023-11-21T16:55:47;7.60;99.90
336;DHT22;156;48.738;9.228;2023-11-21T16:58:14;7.50;99.90
336;DHT22;156;48.738;9.228;2023-11-21T17:00:41;7.50;99.90